Latest Weather Observations for Narrabri

IDN60801

Issued at 3:03 pm EST Friday 31 July 2015 (issued every 30 minutes, with the page automatically refreshed every 10 minutes)

About weather observations | Map of weather stations | Latest weather observations for NSW | Other Formats
Station Details ID: 054038 Name: NARRABRI AIRPORT AWS Lat: -30.32 Lon: 149.83 Height: 229.02 m
Data from the previous 72 hours. | See also: Recent months at Narrabri
Date/Time
EST
Temp
°C
App
Temp
°C
Dew
Point
Rel
Hum
%
Delta-T
°C
Wind Press
QNH
hPa
Press
MSL
hPa
Rain
since 9 am
mm
Dir
 
Spd
km/h
Gust
km/h
Spd
kts
Gust
kts
31/03:00pm 19.3 15.2 4.6 38 7.1 NNW 15 22 8 12 1021.6 1021.7 0.0
31/02:30pm 19.3 15.7 5.0 39 7.0 NNW 13 19 7 10 1021.6 1021.7 0.0
31/02:00pm 19.0 14.7 3.2 35 7.4 NNW 15 22 8 12 1021.8 1021.9 0.0
31/01:30pm 19.0 15.0 4.7 39 7.0 NNW 15 22 8 12 1021.8 1021.9 0.0
31/01:00pm 18.6 14.4 5.5 42 6.4 NNW 17 22 9 12 1022.3 1022.5 0.0
31/12:30pm 18.1 13.7 4.7 41 6.5 NNW 17 24 9 13 1022.6 1022.8 0.0
31/12:00pm 17.7 13.5 5.6 45 5.9 NNW 17 26 9 14 1023.1 1023.3 0.0
31/11:30am 17.2 12.6 5.5 46 5.7 NNW 19 24 10 13 1023.6 1023.8 0.0
31/11:00am 16.6 11.9 5.3 47 5.4 NNW 19 24 10 13 1023.8 1024.0 0.0
31/10:30am 16.3 10.9 4.7 46 5.5 NNW 22 30 12 16 1023.8 1024.0 0.0
31/10:00am 16.0 10.3 5.0 48 5.2 NNW 24 32 13 17 1023.9 1024.1 0.0
31/09:30am 15.6 10.0 5.2 50 5.0 NNW 24 32 13 17 1023.8 1024.0 0.0
31/09:00am 14.9 10.9 4.9 51 4.7 N 15 26 8 14 1023.7 1023.9 0.0
31/08:30am 13.6 8.8 4.5 54 4.2 N 19 26 10 14 1023.5 1023.7 0.0
31/08:00am 13.3 9.0 5.2 58 3.8 N 17 24 9 13 1023.4 1023.6 0.0
31/07:30am 9.3 6.6 5.7 78 1.7 NE 9 13 5 7 1023.1 1023.3 0.0
31/07:00am 4.4 2.7 1.8 83 1.0 CALM 0 0 0 0 1022.9 1023.1 0.0
31/06:30am 5.0 1.9 1.5 78 1.4 ENE 7 9 4 5 1022.6 1022.8 0.0
31/06:00am 4.8 1.9 1.5 79 1.3 NNE 6 9 3 5 1022.3 1022.5 0.0
31/05:30am 6.2 3.6 1.1 70 2.0 E 4 9 2 5 1022.1 1022.2 0.0
31/05:00am 9.5 5.7 3.9 68 2.5 NE 13 17 7 9 1021.9 1022.0 0.0
31/04:30am 9.5 5.4 4.3 70 2.3 NE 15 17 8 9 1021.7 1021.8 0.0
31/04:00am 8.8 5.0 3.8 71 2.2 NNE 13 17 7 9 1022.0 1022.1 0.0
31/03:30am 10.0 5.2 4.4 68 2.5 NNE 19 22 10 12 1022.0 1022.1 0.0
31/03:00am 9.3 5.2 4.5 72 2.1 NNE 15 19 8 10 1022.0 1022.1 0.0
31/02:30am 8.5 4.4 4.1 74 1.9 NE 15 19 8 10 1022.1 1022.2 0.0
31/02:00am 9.3 5.2 4.1 70 2.3 NNE 15 17 8 9 1022.4 1022.6 0.0
31/01:30am 10.3 6.2 4.5 67 2.6 NNE 15 17 8 9 1022.7 1022.9 0.0
31/01:00am 10.9 5.9 4.8 66 2.8 NNE 20 24 11 13 1022.8 1023.0 0.0
31/12:30am 10.4 6.0 4.8 68 2.6 NNE 17 20 9 11 1023.3 1023.5 0.0
31/12:00am 10.3 5.5 4.9 69 2.5 NNE 19 20 10 11 1023.3 1023.5 0.0
 
Date/Time
EST
Temp
°C
App
Temp
°C
Dew
Point
Rel
Hum
%
Delta-T
°C
Wind Press
QNH
hPa
Press
MSL
hPa
Rain
since 9 am
mm
Dir
 
Spd
km/h
Gust
km/h
Spd
kts
Gust
kts
30/11:30pm 10.3 6.3 5.1 70 2.4 NNE 15 17 8 9 1023.4 1023.6 0.0
30/11:00pm 11.4 7.2 5.9 69 2.6 NNE 17 20 9 11 1023.1 1023.3 0.0
30/10:30pm 9.8 5.9 5.2 73 2.1 NE 15 19 8 10 1023.7 1023.9 0.0
30/10:00pm 10.0 6.8 5.2 72 2.2 NNE 11 15 6 8 1024.2 1024.4 0.0
30/09:30pm 9.6 6.4 5.2 74 2.0 N 11 15 6 8 1023.9 1024.1 0.0
30/09:00pm 9.5 6.8 5.5 76 1.8 NNE 9 11 5 6 1023.5 1023.7 0.0
30/08:30pm 8.7 6.4 4.9 77 1.7 NNE 6 9 3 5 1023.6 1023.8 0.0
30/08:00pm 8.3 5.7 4.1 75 1.8 ENE 7 9 4 5 1023.8 1024.0 0.0
30/07:30pm 9.7 6.4 4.5 70 2.3 ENE 11 13 6 7 1024.1 1024.3 0.0
30/07:00pm 10.1 6.4 4.5 68 2.5 NE 13 13 7 7 1023.9 1024.1 0.0
30/06:30pm 10.4 7.4 4.1 65 2.8 NNE 9 9 5 5 1023.4 1023.6 0.0
30/06:00pm 11.7 9.4 4.7 62 3.2 N 6 7 3 4 1023.2 1023.4 0.0
30/05:30pm 12.0 8.3 4.5 60 3.4 N 13 13 7 7 1023.3 1023.5 0.0
30/05:00pm 15.0 11.4 5.0 51 4.7 N 13 15 7 8 1023.6 1023.8 0.0
30/04:30pm 16.7 12.3 5.0 46 5.6 NNW 17 22 9 12 1023.8 1024.0 0.0
30/04:00pm 17.5 12.4 4.1 41 6.3 NNW 20 24 11 13 1024.0 1024.2 0.0
30/03:30pm 17.7 12.3 4.6 42 6.3 N 22 28 12 15 1024.0 1024.2 0.0
30/03:00pm 18.1 13.0 4.3 40 6.6 NW 20 28 11 15 1024.6 1024.8 0.0
30/02:30pm 18.2 12.7 4.0 39 6.8 NW 22 32 12 17 1024.8 1025.0 0.0
30/02:00pm 18.5 12.9 3.6 37 7.0 NNW 22 33 12 18 1024.9 1025.1 0.0
30/01:30pm 18.2 13.1 4.0 39 6.8 NNW 20 30 11 16 1025.5 1025.6 0.0
30/01:00pm 17.9 12.6 5.2 43 6.2 NNW 22 33 12 18 1026.0 1026.2 0.0
30/12:30pm 17.9 12.5 4.5 41 6.4 NNW 22 30 12 16 1026.2 1026.4 0.0
30/12:00pm 17.5 12.3 5.4 45 5.9 NNW 22 30 12 16 1027.1 1027.3 0.0
30/11:30am 17.6 13.2 6.5 48 5.5 NNW 19 24 10 13 1027.7 1027.9 0.0
30/11:00am 16.5 12.6 5.5 48 5.3 NW 15 28 8 15 1028.1 1028.3 0.0
30/10:30am 13.8 12.1 5.7 58 3.9 WSW 4 7 2 4 1028.6 1028.8 0.0
30/10:00am 12.1 9.6 4.6 60 3.4 S 7 9 4 5 1028.9 1029.1 0.0
30/09:30am 10.3 7.4 4.5 67 2.6 S 9 11 5 6 1029.0 1029.2 0.0
30/09:00am 8.9 6.2 3.5 69 2.3 S 7 9 4 5 1029.0 1029.2 0.0
30/08:30am 7.1 3.6 3.5 78 1.5 S 11 13 6 7 1028.9 1029.1 0.0
30/08:00am 5.1 3.3 3.3 88 0.7 NNE 2 7 1 4 1028.6 1028.8 0.0
30/07:30am 3.0 1.2 1.2 88 0.7 CALM 0 6 0 3 1028.4 1028.6 0.0
30/07:00am 1.6 -1.2 -0.2 88 0.7 NE 4 7 2 4 1028.2 1028.4 0.0
30/06:30am 1.3 -0.8 -0.6 87 0.7 CALM 0 7 0 4 1028.1 1028.3 0.0
30/06:00am 1.8 -0.2 -0.1 87 0.7 CALM 0 0 0 0 1027.7 1027.9 0.0
30/05:30am 2.7 -0.5 0.9 88 0.7 SSE 7 9 4 5 1027.4 1027.6 0.0
30/05:00am 1.8 -1.5 -0.1 87 0.7 SSW 7 9 4 5 1027.2 1027.4 0.0
30/04:30am 2.4 -1.6 0.5 87 0.7 NE 11 15 6 8 1027.0 1027.2 0.0
30/04:00am 2.0 -0.8 -0.2 85 0.8 SW 4 7 2 4 1027.6 1027.8 0.0
30/03:30am 3.0 0.0 0.7 85 0.9 SW 6 7 3 4 1027.8 1028.0 0.0
30/03:00am 3.8 1.7 1.5 85 0.9 E 2 6 1 3 1027.9 1028.1 0.0
30/02:30am 4.0 2.3 1.7 85 0.9 CALM 0 0 0 0 1028.3 1028.5 0.0
30/02:00am 4.5 0.8 2.2 85 0.9 ENE 11 15 6 8 1028.4 1028.6 0.0
30/01:30am 4.2 1.7 1.7 84 1.0 NNE 4 11 2 6 1028.7 1028.9 0.0
30/01:00am 4.4 2.7 1.8 83 1.0 CALM 0 0 0 0 1029.1 1029.3 0.0
30/12:30am 4.8 3.1 1.8 81 1.2 CALM 0 0 0 0 1029.3 1029.5 0.0
30/12:00am 6.2 2.8 2.1 75 1.7 SE 9 19 5 10 1029.4 1029.6 0.0
 
Date/Time
EST
Temp
°C
App
Temp
°C
Dew
Point
Rel
Hum
%
Delta-T
°C
Wind Press
QNH
hPa
Press
MSL
hPa
Rain
since 9 am
mm
Dir
 
Spd
km/h
Gust
km/h
Spd
kts
Gust
kts
29/11:30pm 5.8 3.9 2.6 80 1.3 E 2 11 1 6 1029.5 1029.8 0.0
29/11:00pm 6.3 3.9 2.4 76 1.6 SE 4 7 2 4 1029.9 1030.2 0.0
29/10:30pm 7.0 1.3 3.1 76 1.7 E 22 28 12 15 1030.1 1030.3 0.0
29/10:00pm 5.0 1.6 2.0 81 1.2 E 9 17 5 9 1030.3 1030.5 0.0
29/09:30pm 5.9 2.9 2.2 77 1.5 SSW 7 9 4 5 1030.7 1030.9 0.0
29/09:00pm 7.8 3.9 3.3 73 1.9 E 13 17 7 9 1029.6 1029.9 0.0
29/08:30pm 8.0 3.4 3.5 73 2.0 E 17 20 9 11 1029.4 1029.6 0.0
29/08:00pm 7.1 2.5 3.7 79 1.5 ENE 17 20 9 11 1030.4 1030.6 0.0
29/07:30pm 6.6 3.4 2.9 77 1.6 NE 9 15 5 8 1030.6 1030.8 0.0
29/07:00pm 9.1 7.2 3.1 66 2.6 NW 2 6 1 3 1030.5 1030.7 0.0
29/06:30pm 9.3 7.7 2.6 63 2.9 CALM 0 0 0 0 1029.7 1030.0 0.0
29/06:00pm 11.5 8.3 2.8 55 3.8 NW 9 9 5 5 1029.3 1029.5 0.0
29/05:30pm 12.7 9.9 3.1 52 4.3 NW 7 9 4 5 1028.9 1029.1 0.0
29/05:00pm 14.6 11.9 3.7 48 5.0 NNW 7 9 4 5 1028.5 1028.7 0.0
29/04:30pm 16.7 13.6 1.2 35 6.9 W 7 11 4 6 1028.8 1029.0 0.0
29/04:00pm 17.1 13.1 0.3 32 7.3 WNW 11 15 6 8 1029.0 1029.2 0.0
29/03:30pm 17.2 13.6 0.4 32 7.4 WSW 9 13 5 7 1029.0 1029.2 0.0
29/03:00pm 17.3 13.7 0.9 33 7.2 SW 9 17 5 9 1029.1 1029.3 0.0
29/02:30pm 17.3 14.2 1.3 34 7.2 S 7 11 4 6 1029.3 1029.5 0.0
29/02:00pm 16.6 13.4 0.7 34 6.9 SSE 7 11 4 6 1029.4 1029.6 0.0
29/01:30pm 16.5 13.7 3.2 41 6.2 SW 7 13 4 7 1029.8 1030.1 0.0
29/01:00pm 16.8 14.3 3.8 42 6.1 SSE 6 13 3 7 1030.5 1030.7 0.0
29/12:30pm 15.3 11.9 1.8 40 6.0 S 9 13 5 7 1031.1 1031.3 0.0
29/12:00pm 14.5 11.1 2.1 43 5.5 S 9 13 5 7 1031.8 1032.0 0.0
29/11:30am 13.7 9.6 2.3 46 5.1 SSW 13 17 7 9 1032.3 1032.5 0.0
29/11:00am 13.3 9.9 1.9 46 5.0 S 9 11 5 6 1032.7 1032.9 0.0
29/10:30am 11.8 9.2 3.1 55 3.9 SSW 6 7 3 4 1033.3 1033.6 0.0
29/10:00am 10.0 7.0 1.9 57 3.4 S 7 9 4 5 1033.6 1033.9 0.0
29/09:30am 8.9 5.9 0.6 56 3.4 SE 6 7 3 4 1033.6 1033.9 0.0
29/09:00am 7.6 5.4 0.8 62 2.7 S 2 7 1 4 1033.7 1034.0 0.0
29/08:30am 6.2 2.1 -0.3 63 2.5 SE 11 17 6 9 1033.6 1033.9 0.0
29/08:00am 5.1 -0.1 -0.1 69 2.0 SE 17 24 9 13 1033.3 1033.6 0.0
29/07:30am 3.7 -0.3 0.7 81 1.2 SE 11 19 6 10 1033.0 1033.2 0.0
29/07:00am 0.4 -2.3 -2.1 83 0.9 SE 2 7 1 4 1032.5 1032.7 0.0
29/06:30am 0.6 -1.6 -1.6 85 0.8 CALM 0 6 0 3 1032.0 1032.2 0.0
29/06:00am -0.1 -3.6 -2.6 83 0.8 NE 6 7 3 4 1031.8 1032.0 0.0
29/05:30am 1.6 -1.4 -1.5 80 1.1 NE 4 9 2 5 1031.8 1032.0 0.0
29/05:00am 0.9 -2.6 -2.5 78 1.2 ESE 6 9 3 5 1031.5 1031.7 0.0
29/04:30am 2.8 -0.5 -1.5 73 1.6 NW 6 11 3 6 1031.3 1031.5 0.0
29/04:00am 3.7 -2.0 -1.1 71 1.8 SE 19 30 10 16 1031.1 1031.3 0.0
29/03:30am 4.2 0.0 -0.6 71 1.8 ESE 11 22 6 12 1031.0 1031.2 0.0
29/03:00am 3.4 -0.1 -1.3 71 1.7 NNE 7 11 4 6 1031.4 1031.6 0.0
29/02:30am 4.1 0.4 -0.3 73 1.7 SE 9 15 5 8 1031.4 1031.6 0.0
29/02:00am 1.9 -0.7 -1.7 77 1.3 SSE 2 9 1 5 1031.3 1031.5 0.0
29/01:30am 2.8 -0.5 -1.2 75 1.5 S 6 7 3 4 1031.4 1031.6 0.0
29/01:00am 3.8 -0.7 -0.6 73 1.6 SSE 13 19 7 10 1031.6 1031.8 0.0
29/12:30am 3.4 -2.0 -1.0 73 1.6 SSE 17 19 9 10 1031.6 1031.8 0.0
29/12:00am 5.1 0.6 -0.5 67 2.1 SE 13 19 7 10 1031.6 1031.8 0.0
 
Date/Time
EST
Temp
°C
App
Temp
°C
Dew
Point
Rel
Hum
%
Delta-T
°C
Wind Press
QNH
hPa
Press
MSL
hPa
Rain
since 9 am
mm
Dir
 
Spd
km/h
Gust
km/h
Spd
kts
Gust
kts
28/11:30pm 5.2 -0.1 -0.4 67 2.1 SE 17 22 9 12 1031.8 1032.0 0.0
28/11:00pm 5.1 -0.4 0.3 71 1.8 SE 19 24 10 13 1031.9 1032.1 0.0
28/10:30pm 4.6 0.1 -0.2 71 1.8 SSE 13 17 7 9 1032.1 1032.3 0.0
28/10:00pm 5.0 1.2 -0.6 67 2.1 SSE 9 13 5 7 1031.9 1032.1 0.0
28/09:30pm 6.1 1.6 -0.2 64 2.4 SE 13 17 7 9 1031.8 1032.0 0.0
28/09:00pm 4.6 1.3 -1.2 66 2.1 SSE 6 13 3 7 1031.8 1032.0 0.0
28/08:30pm 8.5 4.4 -0.3 54 3.5 SE 11 15 6 8 1032.0 1032.2 0.0
28/08:00pm 8.5 4.4 -0.3 54 3.5 ESE 11 15 6 8 1032.0 1032.2 0.0
28/07:30pm 8.1 4.3 -0.6 54 3.4 ESE 9 11 5 6 1032.0 1032.2 0.0
28/07:00pm 9.0 4.5 -0.1 53 3.6 SE 13 17 7 9 1031.6 1031.8 0.0
28/06:30pm 9.2 4.8 0.6 55 3.5 SE 13 17 7 9 1031.6 1031.8 0.0
28/06:00pm 8.7 5.5 0.7 57 3.2 SE 7 11 4 6 1031.3 1031.5 0.0
28/05:30pm 10.0 6.5 1.1 54 3.7 S 9 13 5 7 1031.0 1031.2 0.0
28/05:00pm 11.8 7.5 0.9 47 4.6 SSE 13 17 7 9 1030.7 1030.9 0.0
28/04:30pm 12.8 7.6 0.2 42 5.3 S 17 22 9 12 1030.4 1030.6 0.0
28/04:00pm 13.2 7.7 0.9 43 5.2 S 19 22 10 12 1030.5 1030.7 0.0
28/03:30pm 13.4 8.3 0.8 42 5.4 S 17 24 9 13 1030.4 1030.6 0.0

Other Formats:

Comma delimited format used in spreadsheet applications
http://www.bom.gov.au/fwo/IDN60801/IDN60801.95734.axf

JavaScript Object Notation format (JSON) in row-major order
http://www.bom.gov.au/fwo/IDN60801/IDN60801.95734.json